Time;durP1;ratioP1;P1;durP2;ratioP2;P2;SDS_P1;SDS_P2;PMS_P1;PMS_P2;Temp;Humidity;BMP_temperature;BMP_pressure;BME280_temperature;BME280_humidity;BME280_pressure;Samples;Min_cycle;Max_cycle;Signal;HPM_P1;HPM_P2
2021/08/05 00:01:46;;;;;;;6.18;2.13;;;16.40;99.90;;;;;;5036584;28;20033;-86
2021/08/05 00:04:12;;;;;;;5.38;1.92;;;16.40;99.90;;;;;;5037599;28;20025;-87
2021/08/05 00:06:38;;;;;;;6.03;2.25;;;16.50;99.90;;;;;;5055436;28;20021;-86
2021/08/05 00:09:04;;;;;;;3.75;1.92;;;16.40;99.90;;;;;;5037538;28;20484;-86
2021/08/05 00:11:30;;;;;;;16.88;2.03;;;16.20;99.90;;;;;;5055262;28;20032;-87
2021/08/05 00:13:56;;;;;;;4.20;1.95;;;16.20;99.90;;;;;;5037405;28;20024;-86
2021/08/05 00:16:22;;;;;;;6.15;2.20;;;16.30;99.90;;;;;;5037265;28;20380;-86
2021/08/05 00:18:48;;;;;;;6.10;1.92;;;16.50;99.90;;;;;;5037320;28;20049;-86
2021/08/05 00:21:18;;;;;;;2.45;1.80;;;16.50;99.90;;;;;;5055152;28;20067;-86
2021/08/05 00:23:44;;;;;;;7.38;2.30;;;16.40;99.90;;;;;;5037231;28;20033;-86
2021/08/05 00:26:11;;;;;;;9.07;2.10;;;16.50;99.90;;;;;;5037490;28;20037;-87
2021/08/05 00:28:37;;;;;;;4.07;2.05;;;16.40;99.90;;;;;;5037095;28;20396;-86
2021/08/05 00:31:02;;;;;;;5.88;1.95;;;16.30;99.90;;;;;;5036911;28;20025;-86
2021/08/05 00:33:28;;;;;;;2.55;1.80;;;16.30;99.90;;;;;;5055218;28;20025;-87
2021/08/05 00:35:54;;;;;;;4.82;2.10;;;16.20;99.90;;;;;;5036845;28;20024;-86
2021/08/05 00:38:19;;;;;;;3.80;1.75;;;16.20;99.90;;;;;;5036966;28;20032;-86
2021/08/05 00:40:45;;;;;;;4.30;2.15;;;16.20;99.90;;;;;;5036705;28;20507;-86
2021/08/05 00:43:11;;;;;;;5.57;2.00;;;16.20;99.90;;;;;;5036865;28;20028;-87
2021/08/05 00:45:37;;;;;;;6.40;2.35;;;16.20;99.90;;;;;;5036744;28;20025;-87
2021/08/05 00:48:03;;;;;;;3.30;2.05;;;16.00;99.90;;;;;;5036741;28;20028;-86
2021/08/05 00:50:28;;;;;;;7.15;1.88;;;16.00;99.90;;;;;;5036756;28;20484;-86
2021/08/05 00:52:54;;;;;;;6.00;2.13;;;16.00;99.90;;;;;;5036701;28;20033;-86
2021/08/05 00:55:20;;;;;;;5.35;1.60;;;16.00;99.90;;;;;;5038217;28;20020;-86
2021/08/05 00:57:46;;;;;;;4.55;2.05;;;16.10;99.90;;;;;;5040220;28;20488;-86
2021/08/05 01:00:12;;;;;;;6.13;1.73;;;16.00;99.90;;;;;;5055524;28;20103;-87
2021/08/05 01:02:45;;;;;;;9.48;1.88;;;16.00;99.90;;;;;;5036476;28;20430;-86
2021/08/05 01:05:11;;;;;;;6.30;2.10;;;16.10;99.90;;;;;;5036441;28;20426;-86
2021/08/05 01:07:43;;;;;;;4.40;2.13;;;16.10;99.90;;;;;;5054242;28;20032;-86
2021/08/05 01:10:27;;;;;;;8.30;2.20;;;16.10;99.90;;;;;;5036224;28;20029;-86
2021/08/05 01:12:59;;;;;;;3.47;1.75;;;16.10;99.90;;;;;;5035951;28;20025;-86
2021/08/05 01:15:27;;;;;;;13.57;2.22;;;16.20;99.90;;;;;;5036216;28;20517;-86
2021/08/05 01:18:00;;;;;;;12.25;2.10;;;16.30;99.90;;;;;;5054017;28;20021;-87
2021/08/05 01:20:27;;;;;;;10.00;2.15;;;16.30;99.90;;;;;;5054261;28;20063;-86
2021/08/05 01:22:58;;;;;;;10.32;2.10;;;16.20;99.90;;;;;;5036061;28;20029;-86
2021/08/05 01:25:43;;;;;;;3.38;1.83;;;16.30;99.90;;;;;;5036315;28;20070;-86
2021/08/05 01:28:10;;;;;;;8.13;1.67;;;16.30;99.90;;;;;;5035973;28;20496;-87
2021/08/05 01:30:37;;;;;;;7.07;1.83;;;16.30;99.90;;;;;;5036080;28;20036;-86
2021/08/05 01:33:03;;;;;;;6.57;1.75;;;16.40;99.90;;;;;;5053756;28;20021;-87
2021/08/05 01:35:30;;;;;;;7.88;1.92;;;16.30;99.90;;;;;;5054385;28;20027;-86
2021/08/05 01:37:56;;;;;;;3.55;2.08;;;16.10;99.90;;;;;;5036542;28;20024;-86
2021/08/05 01:40:23;;;;;;;3.00;1.80;;;16.20;99.90;;;;;;5036016;28;20080;-86
2021/08/05 01:42:49;;;;;;;4.60;1.90;;;16.50;99.90;;;;;;5036357;28;20032;-86
2021/08/05 01:45:17;;;;;;;6.93;2.40;;;16.60;99.90;;;;;;5036626;28;20029;-86
2021/08/05 01:47:44;;;;;;;4.38;1.92;;;16.50;99.90;;;;;;5054190;28;20388;-86
2021/08/05 01:50:12;;;;;;;4.85;2.10;;;16.60;99.90;;;;;;5036392;28;20493;-86
2021/08/05 01:52:38;;;;;;;3.95;2.30;;;16.50;99.90;;;;;;5036512;28;20029;-86
2021/08/05 01:55:05;;;;;;;7.05;2.33;;;16.50;99.90;;;;;;5036265;28;20079;-86
2021/08/05 01:57:31;;;;;;;4.47;1.98;;;16.50;99.90;;;;;;5036000;28;20484;-86
2021/08/05 01:59:57;;;;;;;8.75;2.75;;;16.40;99.90;;;;;;5053905;28;20020;-86
2021/08/05 02:02:23;;;;;;;8.52;2.95;;;16.30;99.90;;;;;;5054367;28;20036;-86
2021/08/05 02:05:10;;;;;;;6.13;2.85;;;16.40;99.90;;;;;;5036414;28;20029;-86
2021/08/05 02:07:57;;;;;;;9.82;2.80;;;16.60;99.90;;;;;;5053035;28;20021;-86
2021/08/05 02:10:43;;;;;;;7.00;2.25;;;16.50;99.90;;;;;;5036149;28;20032;-86
2021/08/05 02:13:22;;;;;;;6.68;2.05;;;16.60;99.90;;;;;;5036091;28;20441;-86
2021/08/05 02:15:51;;;;;;;6.30;2.38;;;16.50;99.90;;;;;;5053899;28;20538;-86
2021/08/05 02:18:17;;;;;;;2.95;2.00;;;16.40;99.90;;;;;;5035996;28;20025;-86
2021/08/05 02:20:45;;;;;;;7.05;1.80;;;16.40;99.90;;;;;;5053849;28;20022;-86
2021/08/05 02:23:13;;;;;;;4.07;1.95;;;16.40;99.90;;;;;;5036235;28;20083;-86
2021/08/05 02:25:40;;;;;;;5.38;1.70;;;16.40;99.90;;;;;;5040615;28;20017;-86
2021/08/05 02:28:06;;;;;;;6.38;1.98;;;16.50;99.90;;;;;;5040215;28;20053;-86
2021/08/05 02:30:32;;;;;;;7.47;2.30;;;16.50;99.90;;;;;;5039951;28;20029;-86
2021/08/05 02:32:59;;;;;;;6.30;1.90;;;16.30;99.90;;;;;;5039689;28;20032;-86
2021/08/05 02:35:26;;;;;;;5.95;1.88;;;16.30;99.90;;;;;;5040718;28;20514;-86
2021/08/05 02:37:52;;;;;;;6.50;2.75;;;16.30;99.90;;;;;;5039824;28;20024;-86
2021/08/05 02:40:19;;;;;;;3.28;2.30;;;16.20;99.90;;;;;;5039716;28;20052;-87
2021/08/05 02:42:46;;;;;;;8.18;2.40;;;16.20;99.90;;;;;;5039777;28;20174;-87
2021/08/05 02:45:13;;;;;;;2.75;2.25;;;16.00;99.90;;;;;;5039714;28;20488;-86
2021/08/05 02:47:39;;;;;;;4.35;2.15;;;15.90;99.90;;;;;;5039835;28;20021;-87
2021/08/05 02:50:06;;;;;;;4.22;2.40;;;15.90;99.90;;;;;;5039834;28;20037;-86
2021/08/05 02:52:34;;;;;;;6.80;2.80;;;15.90;99.90;;;;;;5057320;28;20033;-86
2021/08/05 02:55:02;;;;;;;3.67;2.38;;;15.90;99.90;;;;;;5057567;28;20024;-87
2021/08/05 02:57:28;;;;;;;5.25;2.60;;;15.90;99.90;;;;;;5040439;28;20021;-86
2021/08/05 02:59:54;;;;;;;7.60;2.85;;;15.80;99.90;;;;;;5039861;28;20025;-86
2021/08/05 03:02:20;;;;;;;5.05;2.15;;;15.80;99.90;;;;;;5057634;28;20032;-86
2021/08/05 03:04:47;;;;;;;5.28;2.17;;;15.80;99.90;;;;;;5039402;28;20063;-86
2021/08/05 03:07:13;;;;;;;8.52;2.30;;;15.80;99.90;;;;;;5040654;28;20025;-85
2021/08/05 03:09:39;;;;;;;5.90;2.70;;;15.80;99.90;;;;;;5044056;28;20029;-87
2021/08/05 03:12:05;;;;;;;3.83;2.42;;;15.70;99.90;;;;;;5042278;28;20025;-86
2021/08/05 03:14:32;;;;;;;10.65;2.78;;;15.90;99.90;;;;;;5040776;28;20028;-86
2021/08/05 03:16:58;;;;;;;3.08;1.80;;;16.00;99.90;;;;;;5039512;28;20025;-86
2021/08/05 03:19:24;;;;;;;6.65;2.83;;;16.30;99.90;;;;;;5039236;28;20071;-86
2021/08/05 03:21:50;;;;;;;8.38;2.47;;;16.20;99.90;;;;;;5038973;28;20480;-86
2021/08/05 03:24:15;;;;;;;4.93;2.38;;;16.00;99.90;;;;;;5056936;28;20040;-86
2021/08/05 03:26:41;;;;;;;8.00;2.70;;;16.00;99.90;;;;;;5038919;28;20025;-87
2021/08/05 03:29:07;;;;;;;5.13;2.45;;;16.10;99.90;;;;;;5039065;28;20025;-86
2021/08/05 03:31:32;;;;;;;5.57;1.90;;;16.00;99.90;;;;;;5039192;28;20093;-86
2021/08/05 03:33:58;;;;;;;9.30;2.78;;;15.90;99.90;;;;;;5038834;28;20021;-86
2021/08/05 03:36:24;;;;;;;9.02;2.85;;;16.00;99.90;;;;;;5038830;28;20045;-86
2021/08/05 03:38:50;;;;;;;5.32;2.33;;;15.80;99.90;;;;;;5053714;28;20041;-86
2021/08/05 03:41:16;;;;;;;9.32;2.40;;;15.70;99.90;;;;;;5018682;28;20159;-86
2021/08/05 03:43:43;;;;;;;6.35;2.80;;;15.80;99.90;;;;;;5036880;28;20489;-86
2021/08/05 03:46:08;;;;;;;6.82;2.55;;;15.90;99.90;;;;;;5037266;28;20026;-86
2021/08/05 03:48:34;;;;;;;4.75;2.50;;;16.10;99.90;;;;;;5019119;28;20064;-86
2021/08/05 03:51:00;;;;;;;3.85;2.13;;;16.20;99.90;;;;;;5018855;28;20030;-86
2021/08/05 03:53:25;;;;;;;9.48;2.70;;;16.20;99.90;;;;;;5018872;28;20390;-88
2021/08/05 03:55:51;;;;;;;7.40;2.85;;;16.20;99.90;;;;;;5018644;28;20029;-86
2021/08/05 03:58:18;;;;;;;7.50;2.30;;;16.20;99.90;;;;;;5018554;28;20017;-87
2021/08/05 04:00:44;;;;;;;9.40;2.75;;;16.10;99.90;;;;;;5018704;28;20120;-87
2021/08/05 04:03:09;;;;;;;7.82;2.67;;;16.20;99.90;;;;;;5018742;28;20126;-86
2021/08/05 04:05:35;;;;;;;8.05;2.85;;;16.30;99.90;;;;;;5018595;28;20172;-86
2021/08/05 04:08:01;;;;;;;8.95;2.65;;;16.30;99.90;;;;;;5019040;28;20021;-87
2021/08/05 04:10:27;;;;;;;7.07;2.05;;;16.30;99.90;;;;;;5036233;28;20036;-86
2021/08/05 04:12:53;;;;;;;3.78;1.90;;;16.20;99.90;;;;;;5018402;28;20116;-87
2021/08/05 04:15:18;;;;;;;9.18;2.13;;;16.30;99.90;;;;;;5018121;28;20098;-87
2021/08/05 04:17:44;;;;;;;5.57;2.22;;;16.30;99.90;;;;;;5018332;28;20452;-86
2021/08/05 04:20:10;;;;;;;4.40;1.90;;;16.20;99.90;;;;;;5018254;28;20025;-86
2021/08/05 04:22:36;;;;;;;11.07;2.17;;;16.20;99.90;;;;;;5018097;28;20112;-87
2021/08/05 04:25:07;;;;;;;6.93;2.05;;;16.20;99.90;;;;;;5017886;28;20049;-86
2021/08/05 04:27:33;;;;;;;3.58;1.80;;;16.30;99.90;;;;;;5017843;28;20059;-87
2021/08/05 04:29:59;;;;;;;5.78;2.53;;;16.40;99.90;;;;;;5018156;28;20057;-86
2021/08/05 04:32:25;;;;;;;6.85;2.55;;;16.30;99.90;;;;;;5017760;28;20029;-87
2021/08/05 04:34:50;;;;;;;4.90;2.00;;;16.10;99.90;;;;;;5017828;28;20385;-86
2021/08/05 04:37:19;;;;;;;6.20;1.92;;;16.00;99.90;;;;;;5035389;28;20424;-87
2021/08/05 04:39:44;;;;;;;6.72;2.15;;;15.80;99.90;;;;;;5027755;28;20124;-86
2021/08/05 04:42:10;;;;;;;4.47;2.05;;;15.90;99.90;;;;;;5037262;28;20067;-87
2021/08/05 04:44:36;;;;;;;4.57;2.40;;;15.90;99.90;;;;;;5055120;28;20029;-87
2021/08/05 04:47:02;;;;;;;7.82;1.92;;;15.90;99.90;;;;;;5036570;28;20082;-86
2021/08/05 04:49:28;;;;;;;3.78;2.33;;;15.80;99.90;;;;;;5037181;28;20162;-87
2021/08/05 04:51:53;;;;;;;7.57;1.95;;;15.80;99.90;;;;;;5037133;28;20107;-87
2021/08/05 04:54:23;;;;;;;3.42;2.13;;;15.70;99.90;;;;;;5037153;28;20032;-87
2021/08/05 04:56:49;;;;;;;1.80;1.58;;;15.70;99.90;;;;;;5054938;28;20017;-87
2021/08/05 04:59:15;;;;;;;7.78;2.22;;;15.80;99.90;;;;;;5054988;28;20380;-87
2021/08/05 05:01:43;;;;;;;6.70;1.92;;;16.00;99.90;;;;;;5036836;28;20021;-87
2021/08/05 05:04:11;;;;;;;5.18;1.80;;;16.00;99.90;;;;;;5036964;28;20025;-87
2021/08/05 05:06:37;;;;;;;10.57;2.17;;;16.10;99.90;;;;;;5036744;28;20029;-87
2021/08/05 05:09:03;;;;;;;12.20;2.47;;;16.00;99.90;;;;;;5036855;28;20025;-86
2021/08/05 05:11:30;;;;;;;4.78;2.22;;;16.00;99.90;;;;;;5036772;28;20560;-87
2021/08/05 05:13:55;;;;;;;6.40;2.42;;;15.90;99.90;;;;;;5036932;28;20029;-86
2021/08/05 05:16:21;;;;;;;9.70;2.80;;;16.00;99.90;;;;;;5036756;28;20183;-87
2021/08/05 05:18:47;;;;;;;7.95;2.63;;;16.10;99.90;;;;;;5036786;28;20021;-87
2021/08/05 05:21:12;;;;;;;5.10;2.53;;;16.10;99.90;;;;;;5059865;28;20021;-87
2021/08/05 05:23:38;;;;;;;6.65;2.42;;;16.10;99.90;;;;;;5040015;28;20136;-87
2021/08/05 05:26:04;;;;;;;4.50;2.55;;;16.00;99.90;;;;;;5037597;28;20075;-87
2021/08/05 05:28:30;;;;;;;4.22;2.78;;;16.10;99.90;;;;;;5036786;28;20115;-87
2021/08/05 05:30:58;;;;;;;9.48;3.00;;;16.10;99.90;;;;;;5036626;28;20511;-87
2021/08/05 05:33:24;;;;;;;3.05;2.20;;;16.30;99.90;;;;;;5036584;28;20048;-86
2021/08/05 05:35:50;;;;;;;11.35;2.53;;;16.60;99.90;;;;;;5036090;28;20025;-87
2021/08/05 05:38:16;;;;;;;9.10;2.50;;;16.60;99.90;;;;;;5036308;28;20048;-87
2021/08/05 05:40:42;;;;;;;4.10;2.20;;;16.70;99.90;;;;;;5035904;28;20052;-87
2021/08/05 05:43:09;;;;;;;12.90;2.58;;;16.80;99.90;;;;;;5016615;28;20052;-88
2021/08/05 05:45:35;;;;;;;5.95;2.50;;;16.80;99.90;;;;;;5016451;28;20489;-86
2021/08/05 05:48:01;;;;;;;7.43;2.70;;;16.90;99.90;;;;;;5016394;28;20025;-88
2021/08/05 05:50:29;;;;;;;6.13;2.75;;;16.70;99.90;;;;;;5016432;28;20025;-88
2021/08/05 05:52:56;;;;;;;5.47;2.47;;;16.70;99.90;;;;;;5034087;28;20361;-84
2021/08/05 05:55:23;;;;;;;8.30;2.53;;;16.30;99.90;;;;;;5034498;28;20013;-88
2021/08/05 05:57:49;;;;;;;13.43;3.20;;;16.40;99.90;;;;;;5016641;28;20515;-88
2021/08/05 06:00:15;;;;;;;5.68;2.58;;;16.50;99.90;;;;;;5034423;28;20021;-89
2021/08/05 06:02:41;;;;;;;3.47;2.45;;;16.60;99.90;;;;;;5034583;28;20022;-89
2021/08/05 06:05:08;;;;;;;7.72;2.22;;;16.70;99.90;;;;;;5016852;28;20046;-88
2021/08/05 06:07:48;;;;;;;6.78;2.42;;;16.80;99.90;;;;;;5017132;28;20082;-88
2021/08/05 06:10:16;;;;;;;11.23;3.22;;;17.00;99.90;;;;;;5017270;28;20022;-88
2021/08/05 06:12:42;;;;;;;8.00;2.20;;;16.90;99.90;;;;;;5018964;28;20080;-89
2021/08/05 06:15:09;;;;;;;5.68;2.42;;;16.90;99.90;;;;;;5017145;28;20021;-89
2021/08/05 06:17:35;;;;;;;9.10;2.88;;;17.10;99.90;;;;;;5016633;28;20024;-89
2021/08/05 06:20:02;;;;;;;7.15;2.70;;;17.20;99.90;;;;;;5017901;28;20420;-89
2021/08/05 06:22:28;;;;;;;6.97;2.38;;;17.40;99.90;;;;;;5017265;28;20503;-89
2021/08/05 06:24:53;;;;;;;11.52;3.30;;;17.50;99.90;;;;;;5016877;28;20026;-88
2021/08/05 06:27:22;;;;;;;10.95;2.85;;;17.40;99.90;;;;;;5017145;28;20030;-88
2021/08/05 06:29:49;;;;;;;5.57;2.65;;;17.30;99.90;;;;;;5034597;28;20028;-90
2021/08/05 06:32:16;;;;;;;5.15;2.50;;;17.40;99.90;;;;;;5016972;28;20084;-89
2021/08/05 06:34:41;;;;;;;10.35;3.08;;;17.40;99.90;;;;;;5017181;28;20377;-90
2021/08/05 06:37:07;;;;;;;6.18;3.15;;;17.20;99.90;;;;;;5017192;28;20072;-89
2021/08/05 06:39:33;;;;;;;7.20;3.00;;;17.00;99.90;;;;;;5034406;28;20053;-87
2021/08/05 06:41:58;;;;;;;8.68;2.42;;;17.10;99.90;;;;;;5016993;28;20026;-90
2021/08/05 06:44:24;;;;;;;9.07;2.90;;;17.20;99.90;;;;;;5017014;28;20021;-89
2021/08/05 06:46:50;;;;;;;7.00;2.47;;;17.20;99.90;;;;;;5017076;28;20092;-89
2021/08/05 06:49:15;;;;;;;8.18;3.42;;;17.30;99.90;;;;;;5017072;28;20029;-88
2021/08/05 06:51:41;;;;;;;6.95;2.85;;;17.40;99.90;;;;;;5016325;28;20509;-89
2021/08/05 06:54:07;;;;;;;8.40;2.85;;;17.60;99.90;;;;;;5016977;28;20018;-89
2021/08/05 06:56:32;;;;;;;4.10;2.28;;;17.40;99.90;;;;;;5016941;28;20385;-90
2021/08/05 06:58:58;;;;;;;5.97;2.60;;;17.60;99.90;;;;;;5016774;28;20091;-89
2021/08/05 07:01:24;;;;;;;7.18;2.53;;;17.60;99.90;;;;;;5016862;28;20034;-90
2021/08/05 07:03:49;;;;;;;6.88;2.45;;;17.90;99.90;;;;;;5017023;28;20050;-88
2021/08/05 07:06:16;;;;;;;2.85;1.92;;;17.90;99.90;;;;;;5016298;28;20083;-89
2021/08/05 07:08:42;;;;;;;4.30;2.20;;;17.90;99.90;;;;;;5016930;28;20044;-90
2021/08/05 07:11:08;;;;;;;5.10;2.40;;;17.90;99.90;;;;;;5019836;28;20033;-89
2021/08/05 07:13:33;;;;;;;6.68;3.17;;;18.00;99.90;;;;;;5020317;28;20076;-90
2021/08/05 07:16:00;;;;;;;7.07;2.83;;;18.10;99.90;;;;;;5020515;28;20061;-89
2021/08/05 07:18:25;;;;;;;4.28;2.58;;;18.20;99.90;;;;;;5020727;28;20040;-90
2021/08/05 07:20:51;;;;;;;7.80;2.85;;;18.30;99.90;;;;;;5021096;28;20022;-89
2021/08/05 07:23:17;;;;;;;9.05;2.80;;;18.30;99.90;;;;;;5020105;28;20024;-89
2021/08/05 07:25:45;;;;;;;7.60;2.97;;;18.10;99.90;;;;;;5023247;28;20366;-89
2021/08/05 07:28:10;;;;;;;4.47;2.20;;;18.30;99.90;;;;;;5022942;28;20021;-89
2021/08/05 07:30:37;;;;;;;8.73;2.78;;;18.20;99.90;;;;;;5023409;28;20108;-89
2021/08/05 07:33:03;;;;;;;7.22;2.33;;;18.30;99.90;;;;;;5024950;28;20036;-89
2021/08/05 07:35:29;;;;;;;15.43;3.20;;;18.40;99.90;;;;;;5021982;28;20025;-89
2021/08/05 07:37:56;;;;;;;9.80;2.70;;;18.40;99.90;;;;;;5038525;28;20581;-90
2021/08/05 07:40:21;;;;;;;12.23;2.60;;;18.40;99.90;;;;;;5035872;28;20073;-91
2021/08/05 07:42:47;;;;;;;6.07;2.63;;;18.40;99.90;;;;;;5039781;28;20036;-89
2021/08/05 07:45:13;;;;;;;10.93;2.78;;;18.60;99.90;;;;;;5038323;28;20030;-90
2021/08/05 07:47:39;;;;;;;5.72;2.20;;;18.50;99.90;;;;;;5038648;28;20033;-90
2021/08/05 07:50:06;;;;;;;3.45;2.60;;;18.50;99.90;;;;;;5038817;28;20028;-89
2021/08/05 07:52:32;;;;;;;4.80;2.67;;;18.50;99.90;;;;;;5038502;28;20025;-89
2021/08/05 07:54:58;;;;;;;7.22;3.08;;;18.40;99.90;;;;;;5055858;28;20388;-89
2021/08/05 07:57:24;;;;;;;5.43;2.58;;;18.50;99.90;;;;;;5039142;28;20047;-89
2021/08/05 07:59:49;;;;;;;5.65;2.70;;;18.60;99.90;;;;;;5038038;28;20108;-89
2021/08/05 08:02:15;;;;;;;4.57;2.67;;;18.80;99.90;;;;;;5038044;28;20047;-89
2021/08/05 08:04:41;;;;;;;5.70;3.08;;;18.90;99.90;;;;;;5038315;28;20098;-89
2021/08/05 08:07:06;;;;;;;6.65;2.95;;;19.00;99.90;;;;;;5037743;28;20108;-90
2021/08/05 08:09:33;;;;;;;6.93;3.33;;;18.90;99.90;;;;;;5038790;28;20388;-91
2021/08/05 08:11:59;;;;;;;12.13;3.45;;;18.80;99.90;;;;;;5056513;28;20078;-91
2021/08/05 08:14:25;;;;;;;3.67;2.35;;;18.80;99.90;;;;;;5038448;28;20496;-90
2021/08/05 08:16:51;;;;;;;8.60;2.70;;;18.90;99.90;;;;;;5038043;28;20043;-91
2021/08/05 08:19:16;;;;;;;7.40;2.50;;;18.90;99.90;;;;;;5021710;28;20116;-91
2021/08/05 08:21:42;;;;;;;10.55;2.47;;;19.10;99.90;;;;;;5055032;28;20036;-91
2021/08/05 08:24:10;;;;;;;5.72;2.45;;;19.10;99.90;;;;;;5055853;28;20025;-91
2021/08/05 08:26:37;;;;;;;6.43;2.35;;;19.20;99.90;;;;;;5038951;28;20031;-91
2021/08/05 08:29:03;;;;;;;8.23;2.63;;;19.30;99.90;;;;;;5038056;28;20036;-90
2021/08/05 08:31:29;;;;;;;5.47;2.25;;;19.40;99.90;;;;;;5037932;28;20461;-91
2021/08/05 08:33:55;;;;;;;4.35;2.40;;;19.30;99.90;;;;;;5039126;28;20017;-92
2021/08/05 08:36:21;;;;;;;6.18;2.35;;;19.30;99.90;;;;;;5038122;28;20036;-90
2021/08/05 08:38:47;;;;;;;10.23;2.50;;;19.40;99.90;;;;;;5035601;28;20491;-90
2021/08/05 08:41:13;;;;;;;4.05;2.03;;;19.40;99.90;;;;;;5018093;28;20060;-90
2021/08/05 08:43:39;;;;;;;6.80;2.05;;;19.70;99.90;;;;;;5017906;28;20025;-90
2021/08/05 08:46:07;;;;;;;5.18;2.20;;;20.00;99.90;;;;;;5001974;28;20036;-91
2021/08/05 08:48:34;;;;;;;5.90;2.10;;;20.20;99.90;;;;;;5017898;28;20510;-89
2021/08/05 08:51:01;;;;;;;2.83;1.92;;;20.20;99.90;;;;;;5017469;28;20045;-90
2021/08/05 08:53:33;;;;;;;4.88;2.35;;;20.40;99.90;;;;;;5018044;28;20033;-90
2021/08/05 08:56:01;;;;;;;2.38;1.80;;;20.50;99.90;;;;;;5017480;28;20021;-91
2021/08/05 08:58:27;;;;;;;5.43;1.67;;;20.30;99.90;;;;;;5017736;28;20029;-90
2021/08/05 09:00:52;;;;;;;5.43;2.00;;;20.70;99.90;;;;;;5017785;28;20480;-92
2021/08/05 09:03:20;;;;;;;3.00;1.60;;;21.20;99.90;;;;;;5016928;28;20029;-87
2021/08/05 09:05:47;;;;;;;6.03;1.75;;;21.30;99.90;;;;;;5017178;28;20025;-92
2021/08/05 09:08:12;;;;;;;5.13;1.88;;;20.90;99.90;;;;;;5017581;28;20105;-91
2021/08/05 09:10:38;;;;;;;5.03;1.80;;;20.90;99.90;;;;;;5018020;28;20055;-89
2021/08/05 09:13:07;;;;;;;4.10;1.90;;;20.70;99.90;;;;;;5017238;28;20068;-89
2021/08/05 09:15:48;;;;;;;2.33;1.50;;;20.70;99.90;;;;;;5017080;28;20509;-89
2021/08/05 09:18:34;;;;;;;4.03;2.05;;;20.90;99.90;;;;;;5017361;28;20109;-89
2021/08/05 09:21:25;;;;;;;3.70;1.50;;;21.30;99.90;;;;;;5017469;28;20080;-90
2021/08/05 09:24:03;;;;;;;3.00;1.70;;;21.50;99.90;;;;;;5016927;28;20029;-90
2021/08/05 09:26:39;;;;;;;3.33;1.80;;;21.20;99.90;;;;;;5023215;28;20424;-90
2021/08/05 09:29:15;;;;;;;5.80;2.20;;;21.10;99.90;;;;;;5037520;28;20037;-90
2021/08/05 09:31:45;;;;;;;2.72;1.63;;;20.90;99.90;;;;;;5019096;28;20034;-91
2021/08/05 09:34:19;;;;;;;4.38;1.48;;;20.80;99.90;;;;;;5017091;28;20057;-91
2021/08/05 09:36:47;;;;;;;2.72;1.58;;;20.70;99.90;;;;;;5016538;28;20469;-90
2021/08/05 09:39:20;;;;;;;5.70;1.30;;;20.90;99.90;;;;;;5022247;28;20045;-90
2021/08/05 09:42:03;;;;;;;7.03;1.70;;;21.00;99.90;;;;;;5036565;28;20024;-90
2021/08/05 09:44:46;;;;;;;3.45;1.70;;;20.90;99.90;;;;;;5036531;28;20032;-90
2021/08/05 09:47:21;;;;;;;3.60;1.40;;;21.00;99.90;;;;;;5036452;28;20400;-90
2021/08/05 09:49:46;;;;;;;1.83;1.40;;;21.30;99.90;;;;;;5036118;28;20036;-90
2021/08/05 09:52:23;;;;;;;3.35;1.67;;;21.60;99.90;;;;;;5035929;28;20029;-91
2021/08/05 09:54:51;;;;;;;1.52;1.23;;;22.00;99.90;;;;;;5053711;28;20500;-90
2021/08/05 09:57:34;;;;;;;2.60;1.42;;;22.80;99.90;;;;;;5035959;28;20053;-92
2021/08/05 10:00:00;;;;;;;3.17;1.50;;;22.50;99.90;;;;;;5036268;28;20021;-92
2021/08/05 10:02:38;;;;;;;2.50;1.40;;;22.10;99.90;;;;;;5035765;28;20040;-89
2021/08/05 10:05:16;;;;;;;1.55;1.20;;;22.00;99.90;;;;;;5035901;28;20025;-90
2021/08/05 10:07:51;;;;;;;3.88;1.70;;;22.00;99.90;;;;;;5036060;28;20028;-90
2021/08/05 10:10:23;;;;;;;2.25;1.15;;;21.60;99.90;;;;;;5036571;28;20056;-90
2021/08/05 10:13:01;;;;;;;4.25;1.60;;;21.40;99.90;;;;;;5035964;28;20484;-90
2021/08/05 10:15:29;;;;;;;3.22;1.35;;;21.60;99.90;;;;;;5035651;28;20028;-90
2021/08/05 10:17:56;;;;;;;4.20;1.33;;;21.50;99.90;;;;;;5035683;28;20056;-89
2021/08/05 10:20:23;;;;;;;6.28;1.50;;;21.30;99.90;;;;;;5035557;28;20071;-89
2021/08/05 10:22:50;;;;;;;3.53;1.13;;;21.00;99.90;;;;;;5053501;28;20550;-90
2021/08/05 10:25:21;;;;;;;4.88;1.55;;;21.10;99.90;;;;;;5035535;28;20056;-90
2021/08/05 10:27:48;;;;;;;2.13;1.02;;;21.20;99.90;;;;;;5035596;28;20129;-90
2021/08/05 10:30:16;;;;;;;1.70;1.10;;;21.40;99.90;;;;;;5035605;28;20025;-91
2021/08/05 10:32:44;;;;;;;2.80;1.17;;;21.50;99.90;;;;;;5035440;28;20143;-89
2021/08/05 10:35:11;;;;;;;2.70;1.20;;;21.60;99.90;;;;;;5035485;28;20032;-90
2021/08/05 10:37:38;;;;;;;5.35;1.20;;;21.80;99.90;;;;;;5035791;28;20026;-89
2021/08/05 10:40:10;;;;;;;1.30;0.90;;;22.10;99.90;;;;;;5037207;28;20081;-91
2021/08/05 10:42:36;;;;;;;3.78;1.17;;;22.60;99.90;;;;;;5052573;28;20029;-90
2021/08/05 10:45:03;;;;;;;1.38;1.02;;;23.40;99.90;;;;;;5037952;28;20029;-91
2021/08/05 10:47:31;;;;;;;1.52;0.90;;;23.40;99.90;;;;;;5039962;28;20025;-91
2021/08/05 10:50:23;;;;;;;3.05;1.10;;;23.10;99.90;;;;;;5039709;28;20055;-91
2021/08/05 10:52:51;;;;;;;2.58;0.60;;;23.00;99.90;;;;;;5036486;28;20046;-90
2021/08/05 10:55:35;;;;;;;0.82;0.70;;;23.00;99.90;;;;;;5039260;28;20049;-89
2021/08/05 10:58:12;;;;;;;1.08;0.88;;;23.10;99.90;;;;;;5039032;28;20025;-89
2021/08/05 11:00:49;;;;;;;1.25;0.70;;;23.60;99.90;;;;;;5038839;28;20071;-89
2021/08/05 11:03:35;;;;;;;0.70;0.60;;;24.00;99.90;;;;;;5039159;28;20025;-90
2021/08/05 11:06:02;;;;;;;1.00;0.70;;;24.50;99.90;;;;;;5057188;28;20021;-90
2021/08/05 11:08:30;;;;;;;1.33;0.98;;;24.20;99.90;;;;;;5057195;28;20384;-89
2021/08/05 11:11:24;;;;;;;1.63;1.00;;;23.50;99.90;;;;;;5038840;28;20027;-90
2021/08/05 11:13:59;;;;;;;2.00;1.23;;;23.00;99.90;;;;;;5039494;28;20032;-89
2021/08/05 11:16:48;;;;;;;1.23;0.57;;;22.70;99.90;;;;;;5038673;28;20029;-89
2021/08/05 11:19:28;;;;;;;1.00;0.70;;;22.50;99.90;;;;;;5028493;28;20041;-89
2021/08/05 11:21:54;;;;;;;0.98;0.80;;;22.50;99.90;;;;;;5038708;28;20112;-88
2021/08/05 11:24:48;;;;;;;2.65;0.85;;;22.70;99.90;;;;;;5056418;28;20377;-88
2021/08/05 11:27:16;;;;;;;3.80;0.85;;;23.40;99.90;;;;;;5038296;28;20498;-91
2021/08/05 11:29:42;;;;;;;1.23;0.70;;;24.40;99.90;;;;;;5039349;28;20468;-89
2021/08/05 11:32:25;;;;;;;2.55;0.90;;;24.40;99.90;;;;;;5058790;28;20024;-90
2021/08/05 11:34:57;;;;;;;1.55;0.82;;;24.30;99.90;;;;;;5042174;28;20365;-88
2021/08/05 11:37:23;;;;;;;2.42;1.00;;;25.10;99.90;;;;;;5040724;28;20025;-88
2021/08/05 11:39:51;;;;;;;2.83;0.90;;;24.60;99.90;;;;;;5041773;28;20183;-89
2021/08/05 11:42:19;;;;;;;2.22;0.80;;;24.20;99.90;;;;;;5039856;28;20087;-87
2021/08/05 11:44:58;;;;;;;2.10;0.82;;;23.40;99.90;;;;;;5038258;28;20025;-87
2021/08/05 11:47:36;;;;;;;3.83;1.10;;;23.10;99.90;;;;;;5055909;28;20021;-87
2021/08/05 11:50:06;;;;;;;1.23;0.90;;;22.90;99.90;;;;;;5037833;28;20388;-87
2021/08/05 11:52:45;;;;;;;3.42;1.10;;;22.60;99.90;;;;;;5037795;28;20114;-87
2021/08/05 11:55:21;;;;;;;1.52;1.10;;;22.10;99.90;;;;;;5037699;28;20021;-88
2021/08/05 11:57:56;;;;;;;4.93;1.10;;;21.80;99.90;;;;;;5037003;28;20070;-87
2021/08/05 12:00:32;;;;;;;7.07;1.67;;;21.50;99.90;;;;;;5037706;28;20021;-86
2021/08/05 12:03:05;;;;;;;14.82;3.22;;;21.30;99.90;;;;;;5037735;28;20025;-87
2021/08/05 12:05:36;;;;;;;8.32;1.95;;;20.90;99.90;;;;;;5037597;28;20392;-86
2021/08/05 12:08:02;;;;;;;5.57;1.40;;;20.50;99.90;;;;;;5055444;28;20032;-88
2021/08/05 12:10:30;;;;;;;2.83;1.40;;;20.20;99.90;;;;;;5037499;28;20025;-88
2021/08/05 12:13:07;;;;;;;2.85;1.20;;;20.00;99.90;;;;;;5037461;28;20025;-89
2021/08/05 12:15:37;;;;;;;4.13;1.58;;;19.80;99.90;;;;;;5038969;28;20377;-89
2021/08/05 12:18:17;;;;;;;3.30;1.55;;;19.80;99.90;;;;;;5037463;28;20020;-89
2021/08/05 12:20:56;;;;;;;4.47;1.58;;;19.40;99.90;;;;;;5037747;28;20116;-90
2021/08/05 12:23:39;;;;;;;5.85;1.80;;;19.30;99.90;;;;;;5037755;28;20112;-90
2021/08/05 12:26:18;;;;;;;4.63;1.70;;;19.20;99.90;;;;;;5037621;28;20442;-90
2021/08/05 12:28:45;;;;;;;2.92;1.30;;;19.30;99.90;;;;;;5037545;28;20029;-90
2021/08/05 12:31:14;;;;;;;5.15;1.83;;;19.50;99.90;;;;;;5037550;28;20033;-90
2021/08/05 12:33:43;;;;;;;3.67;1.42;;;19.60;99.90;;;;;;5037494;28;20017;-91
2021/08/05 12:36:20;;;;;;;3.55;1.77;;;19.70;99.90;;;;;;5037464;28;20021;-91
2021/08/05 12:38:50;;;;;;;2.72;1.40;;;20.10;99.90;;;;;;5053913;28;20078;-90
2021/08/05 12:41:20;;;;;;;2.47;1.20;;;20.10;99.90;;;;;;5017918;28;20026;-91
2021/08/05 12:43:46;;;;;;;1.98;1.30;;;20.10;99.90;;;;;;5018404;28;20496;-91
2021/08/05 12:46:12;;;;;;;1.42;0.95;;;20.20;99.90;;;;;;5018306;28;20018;-91
2021/08/05 12:48:39;;;;;;;2.75;1.10;;;20.50;99.90;;;;;;5017299;28;20025;-91
2021/08/05 12:51:06;;;;;;;2.05;1.15;;;20.80;99.90;;;;;;5017304;28;20028;-90
2021/08/05 12:53:34;;;;;;;4.68;1.30;;;21.00;99.90;;;;;;5017045;28;20477;-90